Time;durP1;ratioP1;P1;durP2;ratioP2;P2;SDS_P1;SDS_P2;PMS_P1;PMS_P2;Temp;Humidity;BMP_temperature;BMP_pressure;BME280_temperature;BME280_humidity;BME280_pressure;Samples;Min_cycle;Max_cycle;Signal;HPM_P1;HPM_P2
2023/09/26 00:00:20;;;;;;;23.80;14.83;;;;;;;17.12;100.00;101198.75;1485648;87;22329;-82
2023/09/26 00:02:48;;;;;;;25.07;15.57;;;;;;;17.10;100.00;101203.42;1480712;87;21508;-84
2023/09/26 00:05:15;;;;;;;23.47;13.97;;;;;;;17.09;100.00;101204.45;1485251;87;22980;-84
2023/09/26 00:07:41;;;;;;;21.40;15.00;;;;;;;17.07;100.00;101209.13;1479278;87;21573;-85
2023/09/26 00:10:12;;;;;;;21.27;14.13;;;;;;;17.02;100.00;101205.28;1462398;87;21382;-83
2023/09/26 00:12:39;;;;;;;21.77;14.37;;;;;;;17.02;100.00;101208.79;1486779;87;21471;-84
2023/09/26 00:15:07;;;;;;;22.43;14.40;;;;;;;16.98;100.00;101214.16;1487175;87;21678;-85
2023/09/26 00:17:36;;;;;;;25.10;16.57;;;;;;;16.93;100.00;101208.99;1486286;87;21484;-84
2023/09/26 00:20:09;;;;;;;20.53;14.00;;;;;;;16.89;100.00;101208.50;1481016;87;21477;-85
2023/09/26 00:22:33;;;;;;;27.97;15.03;;;;;;;16.85;100.00;101207.98;1490239;87;22380;-85
2023/09/26 00:25:00;;;;;;;21.07;14.90;;;;;;;16.83;100.00;101209.16;1482200;87;21617;-84
2023/09/26 00:27:27;;;;;;;27.07;14.67;;;;;;;16.82;100.00;101211.51;1484667;87;21521;-84
2023/09/26 00:29:53;;;;;;;21.90;13.67;;;;;;;16.83;100.00;101214.50;1486183;87;21442;-84
2023/09/26 00:32:20;;;;;;;25.83;13.90;;;;;;;16.83;100.00;101214.50;1484469;87;21395;-83
2023/09/26 00:34:46;;;;;;;22.23;15.30;;;;;;;16.81;100.00;101211.19;1482972;87;21403;-82
2023/09/26 00:37:12;;;;;;;25.20;14.13;;;;;;;16.79;100.00;101206.50;1481804;87;22391;-83
2023/09/26 00:39:39;;;;;;;20.80;13.10;;;;;;;16.76;100.00;101210.34;1463507;87;21397;-82
2023/09/26 00:42:05;;;;;;;22.47;14.90;;;;;;;16.76;100.00;101213.49;1482226;87;21629;-82
2023/09/26 00:44:34;;;;;;;22.43;14.37;;;;;;;16.73;100.00;101215.17;1481527;87;21433;-85
2023/09/26 00:47:01;;;;;;;18.50;11.97;;;;;;;16.72;100.00;101213.00;1485280;87;21390;-82
2023/09/26 00:49:32;;;;;;;20.97;14.33;;;;;;;16.72;100.00;101213.51;1459272;87;21600;-82
2023/09/26 00:52:01;;;;;;;18.53;13.03;;;;;;;16.72;100.00;101212.17;1486283;87;21375;-84
2023/09/26 00:54:28;;;;;;;20.53;12.50;;;;;;;16.69;100.00;101212.83;1488911;87;21605;-83
2023/09/26 00:56:56;;;;;;;20.60;12.87;;;;;;;16.67;100.00;101210.82;1484162;87;21559;-83
2023/09/26 01:00:12;;;;;;;18.40;12.47;;;;;;;16.66;100.00;101211.84;1483565;87;21567;-81
2023/09/26 01:02:38;;;;;;;24.90;13.77;;;;;;;16.64;100.00;101213.83;1480514;87;21485;-85
2023/09/26 01:05:06;;;;;;;19.83;12.70;;;;;;;16.60;100.00;101213.84;1485353;87;21501;-85
2023/09/26 01:07:34;;;;;;;24.27;12.37;;;;;;;16.58;100.00;101210.50;1484171;87;21538;-81
2023/09/26 01:10:07;;;;;;;19.83;13.00;;;;;;;16.55;100.00;101216.18;1479197;87;21416;-84
2023/09/26 01:12:31;;;;;;;26.25;14.98;;;;;;;16.52;100.00;101207.16;1478570;87;21434;-81
2023/09/26 01:14:57;;;;;;;19.97;11.57;;;;;;;16.49;100.00;101207.50;1480414;87;22283;-82
2023/09/26 01:17:24;;;;;;;15.60;12.23;;;;;;;16.48;100.00;101205.81;1483109;87;21374;-82
2023/09/26 01:19:50;;;;;;;21.03;12.13;;;;;;;16.44;100.00;101205.32;1478784;87;21522;-82
2023/09/26 01:22:18;;;;;;;19.53;11.57;;;;;;;16.42;100.00;101204.64;1478801;87;22410;-81
2023/09/26 01:24:45;;;;;;;19.80;12.17;;;;;;;16.37;100.00;101200.80;1484236;87;21522;-81
2023/09/26 01:27:11;;;;;;;19.13;11.37;;;;;;;16.33;100.00;101202.14;1480219;87;21551;-82
2023/09/26 01:29:38;;;;;;;21.60;11.73;;;;;;;16.29;100.00;101200.83;1483423;87;21329;-82
2023/09/26 01:32:04;;;;;;;20.70;11.87;;;;;;;16.27;100.00;101206.83;1485490;87;21545;-82
2023/09/26 01:34:30;;;;;;;23.40;11.30;;;;;;;16.26;100.00;101206.50;1482265;87;21397;-82
2023/09/26 01:36:57;;;;;;;14.73;9.67;;;;;;;16.21;100.00;101205.14;1482345;87;21367;-82
2023/09/26 01:39:23;;;;;;;20.00;11.50;;;;;;;16.16;100.00;101207.47;1485763;87;21500;-82
2023/09/26 01:41:50;;;;;;;15.73;10.90;;;;;;;16.12;100.00;101203.47;1481147;87;21574;-82
2023/09/26 01:44:16;;;;;;;16.83;11.00;;;;;;;16.09;100.00;101202.47;1477819;87;21440;-81
2023/09/26 01:46:42;;;;;;;19.37;10.50;;;;;;;16.09;100.00;101197.62;1482174;87;22521;-84
2023/09/26 01:49:09;;;;;;;16.70;11.40;;;;;;;16.09;100.00;101198.97;1462596;87;21350;-84
2023/09/26 01:51:36;;;;;;;14.43;10.07;;;;;;;16.06;100.00;101202.80;1488843;87;21511;-83
2023/09/26 01:54:02;;;;;;;19.13;10.37;;;;;;;16.04;100.00;101199.95;1483472;87;21397;-83
2023/09/26 01:56:33;;;;;;;12.10;9.70;;;;;;;15.98;100.00;101201.44;1468338;87;21650;-84
2023/09/26 01:59:00;;;;;;;17.77;10.57;;;;;;;15.94;100.00;101196.94;1484547;87;21419;-84
2023/09/26 02:01:27;;;;;;;15.63;10.63;;;;;;;15.91;100.00;101199.08;1491258;87;21441;-84
2023/09/26 02:03:53;;;;;;;14.67;10.63;;;;;;;15.89;100.00;101203.26;1484325;87;22498;-82
2023/09/26 02:06:20;;;;;;;19.80;11.77;;;;;;;15.85;100.00;101195.73;1486767;87;21360;-84
2023/09/26 02:08:49;;;;;;;15.97;10.03;;;;;;;15.85;100.00;101199.23;1478829;87;21508;-82
2023/09/26 02:11:15;;;;;;;22.07;11.53;;;;;;;15.83;100.00;101200.42;1479962;87;21448;-81
2023/09/26 02:13:42;;;;;;;19.30;11.17;;;;;;;15.83;100.00;101197.75;1486387;87;21337;-82
2023/09/26 02:16:14;;;;;;;14.00;9.80;;;;;;;15.82;100.00;101201.39;1480846;87;21481;-81
2023/09/26 02:18:40;;;;;;;16.53;10.53;;;;;;;15.79;100.00;101203.41;1466174;87;21441;-82
2023/09/26 02:21:16;;;;;;;14.37;10.43;;;;;;;15.77;100.00;101193.90;1485309;87;21574;-82
2023/09/26 02:23:43;;;;;;;17.57;10.27;;;;;;;15.76;100.00;101203.71;1482749;87;21344;-82
2023/09/26 02:26:09;;;;;;;18.37;10.43;;;;;;;15.74;100.00;101199.06;1478974;87;21419;-82
2023/09/26 02:28:39;;;;;;;17.32;8.83;;;;;;;15.73;100.00;101196.53;1486664;87;22520;-82
2023/09/26 02:31:06;;;;;;;10.77;9.27;;;;;;;15.71;100.00;101199.38;1466247;87;22240;-86
2023/09/26 02:33:32;;;;;;;17.17;11.30;;;;;;;15.69;100.00;101210.71;1485475;87;21565;-85
2023/09/26 02:35:59;;;;;;;19.30;9.77;;;;;;;15.66;100.00;101211.00;1488477;87;21397;-86
2023/09/26 02:38:25;;;;;;;12.23;10.00;;;;;;;15.64;100.00;101204.98;1483303;87;21388;-86
2023/09/26 02:40:51;;;;;;;21.17;10.13;;;;;;;15.60;100.00;101206.32;1482917;87;21522;-86
2023/09/26 02:43:18;;;;;;;24.67;10.13;;;;;;;15.60;100.00;101212.16;1473060;87;21352;-86
2023/09/26 02:45:44;;;;;;;21.83;10.20;;;;;;;15.61;100.00;101209.31;1484143;87;21324;-85
2023/09/26 02:48:10;;;;;;;16.00;9.43;;;;;;;15.61;100.00;101210.64;1485187;87;21566;-85
2023/09/26 02:50:37;;;;;;;14.17;10.17;;;;;;;15.62;100.00;101214.97;1480997;87;22336;-84
2023/09/26 02:53:05;;;;;;;18.27;11.50;;;;;;;15.60;100.00;101214.32;1474763;87;21308;-84
2023/09/26 02:55:31;;;;;;;15.73;10.67;;;;;;;15.57;100.00;101217.31;1480567;87;21567;-85
2023/09/26 02:57:58;;;;;;;24.50;13.40;;;;;;;15.50;100.00;101215.77;1480445;87;21359;-84
2023/09/26 03:00:24;;;;;;;21.00;11.80;;;;;;;15.46;100.00;101212.27;1484257;87;22387;-86
2023/09/26 03:02:50;;;;;;;14.90;11.13;;;;;;;15.43;100.00;101212.59;1489374;87;22456;-86
2023/09/26 03:05:17;;;;;;;13.17;8.27;;;;;;;15.41;100.00;101205.23;1469439;87;22283;-85
2023/09/26 03:07:44;;;;;;;13.73;10.20;;;;;;;15.38;100.00;101205.05;1464152;87;21381;-85
2023/09/26 03:10:11;;;;;;;14.00;10.83;;;;;;;15.37;100.00;101208.73;1479475;87;21330;-84
2023/09/26 03:12:37;;;;;;;16.93;11.07;;;;;;;15.37;100.00;101207.89;1477805;87;21455;-85
2023/09/26 03:15:06;;;;;;;15.63;10.50;;;;;;;15.36;100.00;101213.70;1463499;87;21486;-85
2023/09/26 03:17:32;;;;;;;25.03;11.10;;;;;;;15.34;100.00;101211.21;1481409;87;22312;-85
2023/09/26 03:19:59;;;;;;;17.93;10.77;;;;;;;15.34;100.00;101210.38;1485697;87;22262;-85
2023/09/26 03:22:25;;;;;;;25.67;11.30;;;;;;;15.31;100.00;101211.53;1456735;87;21359;-85
2023/09/26 03:24:51;;;;;;;17.77;10.30;;;;;;;15.30;100.00;101217.84;1490325;87;21367;-85
2023/09/26 03:27:17;;;;;;;13.77;10.00;;;;;;;15.30;100.00;101219.17;1466524;87;21634;-84
2023/09/26 03:29:44;;;;;;;14.93;10.53;;;;;;;15.29;100.00;101217.52;1486719;87;21448;-84
2023/09/26 03:32:15;;;;;;;15.33;10.00;;;;;;;15.29;100.00;101215.34;1476790;87;21596;-83
2023/09/26 03:34:41;;;;;;;12.93;8.83;;;;;;;15.26;100.00;101220.50;1482879;87;21477;-84
2023/09/26 03:37:08;;;;;;;15.73;9.23;;;;;;;15.21;100.00;101214.80;1469766;87;21633;-85
2023/09/26 03:39:34;;;;;;;12.23;10.13;;;;;;;15.21;100.00;101217.47;1462802;87;21558;-84
2023/09/26 03:42:00;;;;;;;15.93;9.67;;;;;;;15.22;100.00;101216.96;1482410;87;21361;-85
2023/09/26 03:44:27;;;;;;;10.77;8.87;;;;;;;15.20;100.00;101208.31;1482731;87;21559;-86
2023/09/26 03:46:54;;;;;;;20.07;11.40;;;;;;;15.18;100.00;101219.63;1476078;87;21360;-85
2023/09/26 03:49:21;;;;;;;17.83;11.07;;;;;;;15.16;100.00;101218.94;1480622;87;22218;-86
2023/09/26 03:51:47;;;;;;;20.87;11.37;;;;;;;15.15;100.00;101216.77;1457814;87;21351;-84
2023/09/26 03:54:13;;;;;;;16.53;10.63;;;;;;;15.16;100.00;101227.77;1484539;87;21315;-85
2023/09/26 03:56:39;;;;;;;12.33;10.03;;;;;;;15.15;100.00;101215.44;1481333;87;21382;-86
2023/09/26 03:59:07;;;;;;;16.23;10.53;;;;;;;15.15;100.00;101218.61;1465281;87;21603;-85
2023/09/26 04:01:34;;;;;;;20.43;10.73;;;;;;;15.17;100.00;101224.63;1486350;87;21367;-84
2023/09/26 04:04:00;;;;;;;15.47;10.37;;;;;;;15.18;100.00;101218.29;1488735;87;22891;-85
2023/09/26 04:06:26;;;;;;;15.27;11.20;;;;;;;15.18;100.00;101217.78;1460660;87;21546;-81
2023/09/26 04:08:53;;;;;;;26.27;11.23;;;;;;;15.19;100.00;101214.14;1488950;87;21374;-82
2023/09/26 04:11:19;;;;;;;19.50;10.17;;;;;;;15.21;100.00;101216.13;1487697;87;21433;-83
2023/09/26 04:13:46;;;;;;;17.43;10.57;;;;;;;15.22;100.00;101216.49;1484246;87;21543;-81
2023/09/26 04:16:12;;;;;;;14.13;9.97;;;;;;;15.24;100.00;101217.66;1479993;87;21426;-81
2023/09/26 04:18:39;;;;;;;15.03;10.83;;;;;;;15.24;100.00;101222.48;1489633;87;22924;-82
2023/09/26 04:21:07;;;;;;;20.57;10.83;;;;;;;15.23;100.00;101211.48;1484670;87;22269;-82
2023/09/26 04:23:33;;;;;;;18.57;9.97;;;;;;;15.23;100.00;101219.48;1483118;87;21547;-80
2023/09/26 04:25:59;;;;;;;19.70;11.03;;;;;;;15.20;100.00;101221.14;1484293;87;21426;-81
2023/09/26 04:28:26;;;;;;;13.77;10.93;;;;;;;15.18;100.00;101217.78;1470777;87;21382;-83
2023/09/26 04:30:53;;;;;;;13.53;10.50;;;;;;;15.18;100.00;101221.78;1473465;87;22521;-82
2023/09/26 04:33:19;;;;;;;18.23;11.07;;;;;;;15.18;100.00;101220.45;1465532;87;22757;-82
2023/09/26 04:35:45;;;;;;;19.80;11.40;;;;;;;15.17;100.00;101225.45;1491832;87;22240;-83
2023/09/26 04:38:12;;;;;;;14.60;10.40;;;;;;;15.17;100.00;101226.79;1482287;87;21581;-82
2023/09/26 04:40:38;;;;;;;18.13;10.53;;;;;;;15.17;100.00;101231.30;1485017;87;21383;-82
2023/09/26 04:43:05;;;;;;;18.63;10.63;;;;;;;15.18;100.00;101233.78;1471110;87;21501;-85
2023/09/26 04:45:32;;;;;;;16.80;11.33;;;;;;;15.18;100.00;101236.45;1486033;87;21315;-83
2023/09/26 04:48:01;;;;;;;13.80;10.43;;;;;;;15.16;100.00;101234.93;1490539;87;21411;-83
2023/09/26 04:50:30;;;;;;;16.57;11.23;;;;;;;15.15;100.00;101235.94;1486068;87;21448;-85
2023/09/26 04:52:59;;;;;;;14.17;10.70;;;;;;;15.11;100.00;101238.09;1483086;87;21531;-84
2023/09/26 04:55:27;;;;;;;20.03;9.87;;;;;;;15.08;100.00;101243.23;1487204;87;22306;-84
2023/09/26 04:57:53;;;;;;;14.63;10.23;;;;;;;15.13;100.00;101249.41;1482431;87;21589;-85
2023/09/26 05:00:19;;;;;;;21.80;11.50;;;;;;;15.18;100.00;101249.78;1485301;87;21293;-84
2023/09/26 05:02:51;;;;;;;17.70;9.73;;;;;;;15.20;100.00;101245.14;1487276;87;21389;-84
2023/09/26 05:05:19;;;;;;;14.07;10.03;;;;;;;15.23;100.00;101252.81;1487841;87;21367;-83
2023/09/26 05:07:46;;;;;;;14.13;9.87;;;;;;;15.27;100.00;101252.83;1465187;87;21388;-84
2023/09/26 05:10:13;;;;;;;19.47;12.03;;;;;;;15.30;100.00;101248.51;1484324;87;22499;-84
2023/09/26 05:12:51;;;;;;;19.63;12.27;;;;;;;15.33;100.00;101252.22;1488778;87;21382;-83
2023/09/26 05:15:20;;;;;;;22.73;13.03;;;;;;;15.37;100.00;101250.57;1479632;87;22232;-82
2023/09/26 05:17:49;;;;;;;19.20;11.80;;;;;;;15.30;100.00;101253.84;1477160;87;21588;-83
2023/09/26 05:20:16;;;;;;;15.67;11.20;;;;;;;15.27;100.00;101250.66;1492866;87;21315;-83
2023/09/26 05:22:47;;;;;;;18.40;11.20;;;;;;;15.27;100.00;101254.66;1480998;87;21514;-81
2023/09/26 05:25:14;;;;;;;18.57;10.88;;;;;;;15.33;100.00;101255.36;1484905;87;22173;-84
2023/09/26 05:27:41;;;;;;;25.67;12.80;;;;;;;15.42;100.00;101262.91;1485211;87;22299;-84
2023/09/26 05:30:09;;;;;;;17.73;11.40;;;;;;;15.48;100.00;101256.97;1485513;87;21522;-85
2023/09/26 05:32:36;;;;;;;17.83;11.90;;;;;;;15.57;100.00;101259.50;1482064;87;21611;-85
2023/09/26 05:35:06;;;;;;;15.83;12.13;;;;;;;15.65;100.00;101260.05;1486541;87;21864;-85
2023/09/26 05:37:36;;;;;;;14.28;11.88;;;;;;;15.72;100.00;101266.42;1482565;87;21434;-81
2023/09/26 05:40:06;;;;;;;18.55;12.07;;;;;;;15.79;100.00;101262.13;1488012;87;21315;-84
2023/09/26 05:42:34;;;;;;;13.72;10.70;;;;;;;15.88;100.00;101269.67;1477207;87;21419;-82
2023/09/26 05:45:02;;;;;;;14.43;10.33;;;;;;;15.94;100.00;101262.34;1481246;87;21316;-82
2023/09/26 05:47:28;;;;;;;15.43;10.80;;;;;;;16.00;100.00;101264.86;1493271;87;21544;-82
2023/09/26 05:49:54;;;;;;;13.90;11.10;;;;;;;16.06;100.00;101262.88;1480901;87;21478;-83
2023/09/26 05:52:21;;;;;;;12.97;10.00;;;;;;;16.12;100.00;101262.22;1465774;87;21485;-92
2023/09/26 05:54:47;;;;;;;18.97;10.83;;;;;;;16.23;100.00;101260.57;1485699;87;21499;-89
2023/09/26 05:57:17;;;;;;;18.10;11.43;;;;;;;16.33;100.00;101267.59;1484673;87;22900;-82
2023/09/26 05:59:43;;;;;;;13.10;10.73;;;;;;;16.42;100.00;101267.94;1491325;87;21411;-77
2023/09/26 06:02:13;;;;;;;30.30;11.23;;;;;;;16.52;100.00;101263.78;1480853;87;21474;-87
2023/09/26 06:04:44;;;;;;;22.73;12.00;;;;;;;16.59;100.00;101266.94;1483003;87;21315;-84
2023/09/26 06:07:11;;;;;;;16.93;11.07;;;;;;;16.70;100.00;101269.28;1489477;87;22336;-82
2023/09/26 06:09:38;;;;;;;20.60;10.80;;;;;;;16.74;100.00;101267.61;1475382;87;21583;-83
2023/09/26 06:12:05;;;;;;;14.27;10.37;;;;;;;16.86;100.00;101264.95;1472444;87;21375;-83
2023/09/26 06:14:33;;;;;;;14.63;11.13;;;;;;;16.96;100.00;101266.97;1480512;87;21301;-81
2023/09/26 06:17:00;;;;;;;14.20;9.90;;;;;;;17.06;100.00;101272.98;1463594;87;21410;-79
2023/09/26 06:19:26;;;;;;;22.27;11.55;;;;;;;17.16;100.00;101273.30;1485260;87;21425;-80
2023/09/26 06:21:52;;;;;;;20.43;10.32;;;;;;;17.29;100.00;101274.92;1481295;87;21577;-80
2023/09/26 06:24:18;;;;;;;17.13;11.30;;;;;;;17.37;100.00;101266.37;1480432;87;21329;-80
2023/09/26 06:26:45;;;;;;;20.32;10.40;;;;;;;17.45;100.00;101271.37;1482294;87;22364;-81
2023/09/26 06:29:12;;;;;;;12.82;9.45;;;;;;;17.58;100.00;101269.00;1482533;87;22640;-79
2023/09/26 06:31:42;;;;;;;13.85;10.08;;;;;;;17.67;100.00;101268.47;1481224;87;21569;-80
2023/09/26 06:34:08;;;;;;;15.40;9.68;;;;;;;17.77;100.00;101273.09;1484456;87;21447;-81
2023/09/26 06:36:34;;;;;;;13.53;9.65;;;;;;;17.90;100.00;101270.73;1480430;87;21520;-87
2023/09/26 06:39:00;;;;;;;19.23;9.98;;;;;;;18.00;100.00;101267.31;1480322;87;22955;-87
2023/09/26 06:41:27;;;;;;;22.73;10.60;;;;;;;18.08;100.00;101268.30;1482296;87;21457;-85
2023/09/26 06:43:57;;;;;;;23.55;11.18;;;;;;;18.18;100.00;101260.84;1480835;87;21389;-86
2023/09/26 06:46:24;;;;;;;20.37;9.55;;;;;;;18.22;100.00;101260.33;1482557;87;21405;-83
2023/09/26 06:48:52;;;;;;;21.48;9.30;;;;;;;18.33;100.00;101260.43;1483441;87;21610;-85
2023/09/26 06:51:18;;;;;;;16.35;8.68;;;;;;;18.41;100.00;101267.08;1482264;87;21359;-83
2023/09/26 06:53:44;;;;;;;18.23;8.28;;;;;;;18.57;100.00;101266.62;1478735;87;21396;-86
2023/09/26 06:56:14;;;;;;;18.15;8.03;;;;;;;18.68;100.00;101263.52;1484707;87;21642;-83
2023/09/26 06:58:40;;;;;;;19.45;8.98;;;;;;;18.79;100.00;101266.28;1479032;87;21500;-84
2023/09/26 07:01:15;;;;;;;18.60;9.33;;;;;;;18.82;100.00;101266.77;1489000;87;21567;-82
2023/09/26 07:03:42;;;;;;;19.77;10.05;;;;;;;18.89;100.00;101266.36;1484731;87;21389;-81
2023/09/26 07:06:10;;;;;;;12.47;8.60;;;;;;;19.04;100.00;101273.60;1483077;87;21747;-86
2023/09/26 07:08:38;;;;;;;21.93;9.18;;;;;;;19.10;100.00;101272.87;1484546;87;21463;-83
2023/09/26 07:11:06;;;;;;;18.20;8.30;;;;;;;19.23;100.00;101275.77;1486169;87;21418;-84
2023/09/26 07:13:35;;;;;;;13.13;7.80;;;;;;;19.28;100.00;101274.71;1406509;87;22129;-85
2023/09/26 07:16:04;;;;;;;17.48;9.78;;;;;;;19.36;100.00;101268.39;1435891;87;21390;-85
2023/09/26 07:18:34;;;;;;;16.48;8.48;;;;;;;19.46;100.00;101276.19;1490017;87;21484;-86
2023/09/26 07:21:04;;;;;;;25.27;9.00;;;;;;;19.57;100.00;101278.41;1476380;87;21558;-87
2023/09/26 07:23:29;;;;;;;16.02;8.08;;;;;;;19.63;100.00;101277.66;1460643;87;21411;-85
2023/09/26 07:26:13;;;;;;;9.18;7.95;;;;;;;19.74;100.00;101268.34;1483808;87;21449;-84
2023/09/26 07:28:42;;;;;;;27.07;9.53;;;;;;;19.88;100.00;101276.03;1479579;87;21847;-85
2023/09/26 07:31:10;;;;;;;19.77;9.25;;;;;;;20.20;100.00;101277.45;1482064;87;21426;-85
2023/09/26 07:33:38;;;;;;;25.17;8.98;;;;;;;20.20;100.00;101277.45;1484019;87;21529;-85
2023/09/26 07:36:06;;;;;;;13.10;9.10;;;;;;;20.40;100.00;101280.32;1482758;87;21359;-82
2023/09/26 07:38:34;;;;;;;16.80;8.28;;;;;;;20.54;100.00;101275.42;1482681;87;21540;-85
2023/09/26 07:41:01;;;;;;;27.50;8.35;;;;;;;20.57;100.00;101275.06;1479798;87;21470;-84
2023/09/26 07:43:33;;;;;;;20.32;7.47;;;;;;;20.76;100.00;101280.80;1481553;87;21434;-86
2023/09/26 07:46:10;;;;;;;10.82;8.25;;;;;;;20.84;100.00;101280.16;1480553;87;22261;-85
2023/09/26 07:48:38;;;;;;;17.42;8.80;;;;;;;20.90;100.00;101282.58;1405372;87;21309;-85
2023/09/26 07:51:10;;;;;;;25.00;7.97;;;;;;;21.00;100.00;101278.19;1545541;87;21361;-83
2023/09/26 07:53:37;;;;;;;21.62;8.23;;;;;;;21.08;100.00;101280.22;1562636;87;21448;-86
2023/09/26 07:56:11;;;;;;;18.52;9.75;;;;;;;21.24;100.00;101284.48;1406315;87;21271;-87
2023/09/26 08:02:50;;;;;;;21.12;7.72;;;;;;;21.52;100.00;101281.80;1435050;90;22498;-84
2023/09/26 08:05:19;;;;;;;19.57;7.58;;;;;;;21.76;100.00;101287.70;1428186;91;21441;-86
2023/09/26 08:07:45;;;;;;;22.50;8.20;;;;;;;21.85;100.00;101279.77;1437269;91;21477;-88
2023/09/26 08:10:12;;;;;;;17.92;9.00;;;;;;;21.91;100.00;101281.64;1423931;91;21411;-87
2023/09/26 08:12:39;;;;;;;15.75;8.38;;;;;;;21.97;100.00;101279.48;1437629;91;21651;-86
2023/09/26 08:15:07;;;;;;;14.58;7.80;;;;;;;22.09;100.00;101279.20;1438846;91;22398;-81
2023/09/26 08:17:34;;;;;;;17.45;7.60;;;;;;;22.18;100.00;101275.88;1432168;91;21516;-88
2023/09/26 08:20:00;;;;;;;16.52;8.63;;;;;;;22.23;100.00;101273.89;1430533;91;22563;-84
2023/09/26 08:22:27;;;;;;;19.05;7.87;;;;;;;22.37;100.00;101273.41;1428854;91;21375;-83
2023/09/26 08:24:54;;;;;;;17.75;7.72;;;;;;;22.55;100.00;101273.63;1435912;91;21405;-83
2023/09/26 08:27:21;;;;;;;19.95;7.50;;;;;;;22.68;100.00;101272.83;1437372;91;22396;-83
2023/09/26 08:29:47;;;;;;;19.77;8.50;;;;;;;22.86;100.00;101272.20;1461778;87;22313;-88
2023/09/26 08:32:13;;;;;;;23.00;8.75;;;;;;;22.98;100.00;101274.08;1486521;87;21345;-86
2023/09/26 08:34:40;;;;;;;17.95;8.08;;;;;;;23.08;100.00;101270.14;1484466;87;21286;-87
2023/09/26 08:37:06;;;;;;;12.73;7.47;;;;;;;23.21;100.00;101264.70;1485652;87;21345;-86
2023/09/26 08:39:32;;;;;;;15.58;8.10;;;;;;;23.24;100.00;101266.16;1484868;87;21544;-87
2023/09/26 08:42:00;;;;;;;14.47;7.42;;;;;;;23.32;100.00;101268.11;1465842;87;22475;-86
2023/09/26 08:44:27;;;;;;;19.02;6.95;;;;;;;23.48;100.00;101261.92;1484461;87;21574;-88
2023/09/26 08:46:54;;;;;;;15.72;7.15;;;;;;;23.58;100.00;101263.67;1464966;87;21359;-86
2023/09/26 08:49:27;;;;;;;17.25;7.00;;;;;;;23.66;100.00;101264.79;1482012;87;21566;-86
2023/09/26 08:51:53;;;;;;;14.83;7.95;;;;;;;23.79;100.00;101262.05;1483785;87;21603;-87
2023/09/26 08:58:21;;;;;;;11.53;7.20;;;;;;;24.12;100.00;101258.36;1483928;87;21456;-88
2023/09/26 09:00:49;;;;;;;17.48;7.17;;;;;;;24.37;100.00;101260.27;1484683;87;21484;-85
2023/09/26 09:03:15;;;;;;;11.90;6.42;;;;;;;24.39;100.00;101256.83;1484367;87;22394;-88
2023/09/26 09:05:43;;;;;;;14.65;7.03;;;;;;;24.49;100.00;101253.98;1467705;87;21441;-86
2023/09/26 09:08:11;;;;;;;20.02;7.45;;;;;;;24.51;100.00;101245.62;1485373;87;21523;-86
2023/09/26 09:10:52;;;;;;;19.20;6.08;;;;;;;24.64;100.00;101244.18;1464017;87;21432;-87
2023/09/26 09:13:34;;;;;;;21.77;7.67;;;;;;;24.76;100.00;101245.11;1484141;87;21367;-86
2023/09/26 09:16:15;;;;;;;20.20;7.50;;;;;;;24.96;100.00;101241.40;1404255;87;21301;-86
2023/09/26 09:18:50;;;;;;;13.55;7.17;;;;;;;25.07;100.00;101243.91;1497802;87;21426;-87
2023/09/26 09:21:34;;;;;;;17.92;7.20;;;;;;;25.22;100.00;101244.39;1564184;87;22145;-87
2023/09/26 09:24:04;;;;;;;13.30;6.78;;;;;;;25.31;100.00;101242.20;1404330;87;21243;-85
2023/09/26 09:26:34;;;;;;;15.25;7.55;;;;;;;25.44;100.00;101243.42;1570237;87;21169;-87
2023/09/26 09:29:20;;;;;;;24.63;7.25;;;;;;;25.56;100.00;101234.83;1491942;87;22073;-87
2023/09/26 09:31:48;;;;;;;28.92;7.50;;;;;;;25.56;100.00;101234.83;1483574;87;21676;-85
2023/09/26 09:34:18;;;;;;;19.20;7.15;;;;;;;25.68;100.00;101231.35;1405565;87;21242;-88
2023/09/26 09:36:45;;;;;;;22.77;7.50;;;;;;;25.81;100.00;101233.91;1405830;87;21442;-86
2023/09/26 09:39:11;;;;;;;19.95;6.72;;;;;;;25.88;100.00;101229.23;1407875;87;21374;-87
2023/09/26 09:41:38;;;;;;;17.02;6.95;;;;;;;26.00;100.00;101230.09;1407416;87;21242;-89
2023/09/26 09:44:05;;;;;;;19.95;6.58;;;;;;;26.07;100.00;101226.77;1412562;87;21235;-86
2023/09/26 09:46:38;;;;;;;28.07;7.33;;;;;;;26.10;100.00;101227.66;1407252;87;21405;-86
2023/09/26 09:49:12;;;;;;;14.38;6.78;;;;;;;26.18;100.00;101222.95;1403210;87;21242;-85
2023/09/26 09:51:46;;;;;;;27.67;8.18;;;;;;;26.28;100.00;101215.09;1530148;87;21375;-83
2023/09/26 09:54:14;;;;;;;18.25;7.15;;;;;;;26.36;100.00;101206.61;1484754;87;22174;-85
2023/09/26 09:56:42;;;;;;;19.42;6.42;;;;;;;26.48;100.00;101215.59;1481230;87;22563;-92
2023/09/26 09:59:14;;;;;;;13.98;6.90;;;;;;;26.59;100.00;101213.99;1482505;87;21440;-87
2023/09/26 10:05:55;;;;;;;17.98;7.05;;;;;;;26.71;100.00;101199.06;1570253;87;21339;-89
2023/09/26 10:08:22;;;;;;;16.57;6.50;;;;;;;26.74;100.00;101197.23;1406344;87;22137;-88
2023/09/26 10:10:49;;;;;;;21.85;6.37;;;;;;;26.69;100.00;101188.42;1406599;87;21205;-87
2023/09/26 10:13:17;;;;;;;22.22;5.83;;;;;;;26.85;100.00;101188.25;1412704;87;21499;-88
2023/09/26 10:16:06;;;;;;;15.40;6.47;;;;;;;26.91;100.00;101185.94;1452877;87;21462;-88
2023/09/26 10:18:39;;;;;;;14.53;6.05;;;;;;;27.01;100.00;101184.79;1403122;87;21271;-87
2023/09/26 10:21:30;;;;;;;21.65;6.00;;;;;;;27.18;100.00;101186.81;1570295;87;21258;-90
2023/09/26 10:24:16;;;;;;;12.25;6.60;;;;;;;27.33;100.00;101185.76;1563998;87;21413;-90
2023/09/26 10:26:49;;;;;;;11.90;6.08;;;;;;;27.55;100.00;101182.39;1570312;87;21271;-91
2023/09/26 10:29:23;;;;;;;15.38;5.70;;;;;;;27.60;100.00;101173.80;1455979;87;21316;-88
2023/09/26 10:32:05;;;;;;;15.85;5.60;;;;;;;27.58;100.00;101171.03;1477791;87;21375;-89
2023/09/26 10:34:37;;;;;;;17.32;5.67;;;;;;;27.62;100.00;101164.88;1483151;87;21411;-88
2023/09/26 10:37:08;;;;;;;17.75;6.17;;;;;;;27.71;100.00;101170.75;1481855;87;21433;-87
2023/09/26 10:39:40;;;;;;;12.33;5.33;;;;;;;27.78;100.00;101165.16;1486093;87;22080;-89
2023/09/26 10:42:22;;;;;;;10.75;4.55;;;;;;;27.82;70.15;101163.11;1488770;87;21481;-90
2023/09/26 10:47:22;;;;;;;12.53;5.15;;;;;;;27.92;51.39;101152.11;1472125;87;22751;-91
2023/09/26 10:49:50;;;;;;;20.55;5.50;;;;;;;28.12;55.42;101164.70;1480467;87;21330;-90
2023/09/26 10:52:18;;;;;;;14.43;5.55;;;;;;;28.28;54.32;101157.59;1484198;87;21544;-91
2023/09/26 10:54:44;;;;;;;16.12;5.50;;;;;;;28.35;52.20;101152.28;1480041;87;21504;-91
2023/09/26 10:57:18;;;;;;;17.65;5.67;;;;;;;28.51;53.11;101153.89;1486011;87;21403;-90
2023/09/26 10:59:45;;;;;;;8.93;5.22;;;;;;;28.52;47.50;101151.48;1481190;87;21337;-89
2023/09/26 11:02:11;;;;;;;17.55;5.40;;;;;;;28.53;47.41;101151.21;1486280;87;21286;-91
2023/09/26 11:04:38;;;;;;;16.07;5.67;;;;;;;28.65;47.58;101149.75;1479404;87;21434;-93
2023/09/26 11:07:05;;;;;;;11.95;4.92;;;;;;;28.77;46.81;101147.77;1488496;87;21516;-90
2023/09/26 11:09:36;;;;;;;12.73;5.42;;;;;;;28.84;45.32;101144.84;1462666;87;21485;-90
2023/09/26 11:12:03;;;;;;;14.00;5.33;;;;;;;28.94;44.56;101143.60;1461008;87;22498;-92
2023/09/26 11:14:29;;;;;;;11.83;4.75;;;;;;;28.91;42.27;101131.03;1480762;87;21330;-93
2023/09/26 11:16:57;;;;;;;14.13;5.35;;;;;;;28.93;43.50;101137.06;1483699;87;21614;-91
2023/09/26 11:19:29;;;;;;;14.73;5.60;;;;;;;29.01;43.45;101135.26;1488574;87;21478;-91
2023/09/26 11:21:55;;;;;;;15.93;5.37;;;;;;;29.05;42.70;101136.42;1485149;87;21416;-89
2023/09/26 11:24:29;;;;;;;11.57;5.15;;;;;;;29.05;42.62;101130.16;1468331;87;21447;-90
2023/09/26 11:27:01;;;;;;;17.65;5.65;;;;;;;29.15;42.88;101129.74;1482327;87;21389;-91